Main page
METAR-TAF:

METAR-TAF

Airports :

Amman Civil Airport

Amman, Jordan

latitude: 31-59N, longitude: 035-59E, elevation: 767 m

Current weather observation

The report was made 45 minutes ago, at 14:00 UTC
Wind 12 kt from the West/Northwest
Temperature 23°C
Humidity 44%
Pressure 1015 hPa
Visibility: 5000 m
haze

METAR: OJAM 281400Z 29012KT 5000 HZ NSC 23/10 Q1015 NOSIG

Time: 17:45 (14:45 UTC)

Forecast

The report was made 3 hours and 45 minutes ago, at 11:00 UTC
Forecast valid from 28 at 12 UTC to 29 at 18 UTC
Wind 10 kt from the West/Northwest
Visibility: 5000 m
Few clouds at a height of 3500 ft
haze
Temporary
from 28 at 12 UTC to 28 at 17 UTC
Wind 16 kt from the Northwest
Visibility: 4000 m
Blowing dust
Probability 30% :
Temporary
from 29 at 02 UTC to 29 at 05 UTC
Visibility: 3000 m
Few clouds at a height of 3000 ft
mist

TAF: OJAM 281100Z 2812/2918 29010KT 5000 HZ FEW035 TEMPO 2812/2817 32016KT 4000 BLDU NSC PROB30 TEMPO 2902/2905 3000 BR FEW030

Weather observations and forecasts of more than 4000 airports (METAR and TAF reports).

The available stations are represented by yellow and red dots on the map.

Hover mouse over dot to see the name of the station.

Then click to see weather observations and forecasts.

To change the map : click on the green buttons with a black cross to zoom in, on the green button with a dash to zoom out, or on the green arrows for adjacent maps.


METAR-TAF: